sensor_id;sensor_type;location;lat;lon;timestamp;temperature;humidity
22923;DHT22;11627;51.322;22.816;2023-05-10T00:00:35;5.80;99.90
22923;DHT22;11627;51.322;22.816;2023-05-10T00:03:03;5.80;99.90
22923;DHT22;11627;51.322;22.816;2023-05-10T00:05:32;5.70;99.90
22923;DHT22;11627;51.322;22.816;2023-05-10T00:07:59;5.70;99.90
22923;DHT22;11627;51.322;22.816;2023-05-10T00:10:25;5.70;99.90
22923;DHT22;11627;51.322;22.816;2023-05-10T00:12:51;5.70;99.90
22923;DHT22;11627;51.322;22.816;2023-05-10T00:15:16;5.70;99.90
22923;DHT22;11627;51.322;22.816;2023-05-10T00:17:42;5.70;99.90
22923;DHT22;11627;51.322;22.816;2023-05-10T00:20:09;5.70;99.90
22923;DHT22;11627;51.322;22.816;2023-05-10T00:22:35;5.70;99.90
22923;DHT22;11627;51.322;22.816;2023-05-10T00:25:01;5.60;99.90
22923;DHT22;11627;51.322;22.816;2023-05-10T00:27:29;5.60;99.90
22923;DHT22;11627;51.322;22.816;2023-05-10T00:29:56;5.60;99.90
22923;DHT22;11627;51.322;22.816;2023-05-10T00:32:23;5.60;99.90
22923;DHT22;11627;51.322;22.816;2023-05-10T00:34:52;5.50;99.90
22923;DHT22;11627;51.322;22.816;2023-05-10T00:37:17;5.50;99.90
22923;DHT22;11627;51.322;22.816;2023-05-10T00:39:44;5.50;99.90
22923;DHT22;11627;51.322;22.816;2023-05-10T00:42:13;5.50;99.90
22923;DHT22;11627;51.322;22.816;2023-05-10T00:44:40;5.50;99.90
22923;DHT22;11627;51.322;22.816;2023-05-10T00:47:07;5.40;99.90
22923;DHT22;11627;51.322;22.816;2023-05-10T00:49:34;5.40;99.90
22923;DHT22;11627;51.322;22.816;2023-05-10T00:52:00;5.40;99.90
22923;DHT22;11627;51.322;22.816;2023-05-10T00:54:29;5.30;99.90
22923;DHT22;11627;51.322;22.816;2023-05-10T00:56:55;5.30;99.90
22923;DHT22;11627;51.322;22.816;2023-05-10T00:59:23;5.30;99.90
22923;DHT22;11627;51.322;22.816;2023-05-10T01:01:49;5.30;99.90
22923;DHT22;11627;51.322;22.816;2023-05-10T01:04:17;5.30;99.90
22923;DHT22;11627;51.322;22.816;2023-05-10T01:06:45;5.20;99.90
22923;DHT22;11627;51.322;22.816;2023-05-10T01:09:16;5.30;99.90
22923;DHT22;11627;51.322;22.816;2023-05-10T01:11:43;5.30;99.90
22923;DHT22;11627;51.322;22.816;2023-05-10T01:14:10;5.20;99.90
22923;DHT22;11627;51.322;22.816;2023-05-10T01:16:40;5.20;99.90
22923;DHT22;11627;51.322;22.816;2023-05-10T01:19:29;5.20;99.90
22923;DHT22;11627;51.322;22.816;2023-05-10T01:33:59;5.20;1.00
22923;DHT22;11627;51.322;22.816;2023-05-10T01:36:40;5.10;1.00
22923;DHT22;11627;51.322;22.816;2023-05-10T01:42:23;5.00;1.00
22923;DHT22;11627;51.322;22.816;2023-05-10T01:47:42;4.90;1.00
22923;DHT22;11627;51.322;22.816;2023-05-10T01:50:30;4.90;1.00
22923;DHT22;11627;51.322;22.816;2023-05-10T01:53:00;4.80;1.00
22923;DHT22;11627;51.322;22.816;2023-05-10T01:55:30;4.80;1.00
22923;DHT22;11627;51.322;22.816;2023-05-10T01:58:09;4.90;1.00
22923;DHT22;11627;51.322;22.816;2023-05-10T02:00:40;4.90;1.00
22923;DHT22;11627;51.322;22.816;2023-05-10T02:03:13;4.90;1.00
22923;DHT22;11627;51.322;22.816;2023-05-10T02:05:41;4.90;1.00
22923;DHT22;11627;51.322;22.816;2023-05-10T02:08:11;4.90;1.00
22923;DHT22;11627;51.322;22.816;2023-05-10T02:10:40;4.90;1.00
22923;DHT22;11627;51.322;22.816;2023-05-10T02:13:07;4.90;1.00
22923;DHT22;11627;51.322;22.816;2023-05-10T02:15:37;4.90;1.00
22923;DHT22;11627;51.322;22.816;2023-05-10T02:18:05;4.80;1.00
22923;DHT22;11627;51.322;22.816;2023-05-10T02:20:38;4.80;1.00
22923;DHT22;11627;51.322;22.816;2023-05-10T02:23:06;4.70;1.00
22923;DHT22;11627;51.322;22.816;2023-05-10T02:25:36;4.70;1.00
22923;DHT22;11627;51.322;22.816;2023-05-10T02:28:06;4.70;1.00
22923;DHT22;11627;51.322;22.816;2023-05-10T02:30:39;4.70;1.00
22923;DHT22;11627;51.322;22.816;2023-05-10T02:33:07;4.60;1.00
22923;DHT22;11627;51.322;22.816;2023-05-10T02:35:36;4.60;1.00
22923;DHT22;11627;51.322;22.816;2023-05-10T02:38:06;4.60;1.00
22923;DHT22;11627;51.322;22.816;2023-05-10T02:40:34;4.60;1.00
22923;DHT22;11627;51.322;22.816;2023-05-10T02:43:02;4.60;1.00
22923;DHT22;11627;51.322;22.816;2023-05-10T02:45:33;4.60;1.00
22923;DHT22;11627;51.322;22.816;2023-05-10T02:48:02;4.60;1.00
22923;DHT22;11627;51.322;22.816;2023-05-10T02:50:30;4.50;1.00
22923;DHT22;11627;51.322;22.816;2023-05-10T02:53:03;4.50;1.00
22923;DHT22;11627;51.322;22.816;2023-05-10T02:55:35;4.50;1.00
22923;DHT22;11627;51.322;22.816;2023-05-10T02:58:03;4.50;1.00
22923;DHT22;11627;51.322;22.816;2023-05-10T03:00:30;4.50;1.00
22923;DHT22;11627;51.322;22.816;2023-05-10T03:02:56;4.60;1.00
22923;DHT22;11627;51.322;22.816;2023-05-10T03:05:22;4.60;1.00
22923;DHT22;11627;51.322;22.816;2023-05-10T03:07:50;4.60;1.00
22923;DHT22;11627;51.322;22.816;2023-05-10T03:10:27;4.50;1.00
22923;DHT22;11627;51.322;22.816;2023-05-10T03:13:16;4.50;1.00
22923;DHT22;11627;51.322;22.816;2023-05-10T03:15:59;4.40;1.00
22923;DHT22;11627;51.322;22.816;2023-05-10T03:18:33;4.50;1.00
22923;DHT22;11627;51.322;22.816;2023-05-10T03:21:07;4.40;1.00
22923;DHT22;11627;51.322;22.816;2023-05-10T03:23:58;4.40;1.00
22923;DHT22;11627;51.322;22.816;2023-05-10T03:26:27;4.40;1.00
22923;DHT22;11627;51.322;22.816;2023-05-10T03:28:55;4.50;1.00
22923;DHT22;11627;51.322;22.816;2023-05-10T03:31:22;4.50;1.00
22923;DHT22;11627;51.322;22.816;2023-05-10T03:33:53;4.50;1.00
22923;DHT22;11627;51.322;22.816;2023-05-10T03:36:19;4.60;1.00
22923;DHT22;11627;51.322;22.816;2023-05-10T03:38:46;4.60;1.00
22923;DHT22;11627;51.322;22.816;2023-05-10T03:41:13;4.70;1.00
22923;DHT22;11627;51.322;22.816;2023-05-10T03:43:39;4.70;1.00
22923;DHT22;11627;51.322;22.816;2023-05-10T03:46:06;4.80;1.00
22923;DHT22;11627;51.322;22.816;2023-05-10T03:48:37;4.90;1.00
22923;DHT22;11627;51.322;22.816;2023-05-10T03:51:06;5.00;1.00
22923;DHT22;11627;51.322;22.816;2023-05-10T03:53:32;5.00;1.00
22923;DHT22;11627;51.322;22.816;2023-05-10T03:55:58;5.10;1.00
22923;DHT22;11627;51.322;22.816;2023-05-10T03:58:25;5.20;1.00
22923;DHT22;11627;51.322;22.816;2023-05-10T04:00:51;5.30;1.00
22923;DHT22;11627;51.322;22.816;2023-05-10T04:03:18;5.40;1.00
22923;DHT22;11627;51.322;22.816;2023-05-10T04:05:47;5.50;1.00
22923;DHT22;11627;51.322;22.816;2023-05-10T04:08:14;5.60;1.00
22923;DHT22;11627;51.322;22.816;2023-05-10T04:10:43;5.80;1.00
22923;DHT22;11627;51.322;22.816;2023-05-10T04:13:10;5.90;1.00
22923;DHT22;11627;51.322;22.816;2023-05-10T04:15:37;6.00;1.00
22923;DHT22;11627;51.322;22.816;2023-05-10T04:18:03;6.10;1.00
22923;DHT22;11627;51.322;22.816;2023-05-10T04:20:32;6.30;1.00
22923;DHT22;11627;51.322;22.816;2023-05-10T04:23:01;6.40;1.00
22923;DHT22;11627;51.322;22.816;2023-05-10T04:25:28;6.50;1.00
22923;DHT22;11627;51.322;22.816;2023-05-10T04:27:56;6.60;1.00
22923;DHT22;11627;51.322;22.816;2023-05-10T04:30:23;6.70;1.00
22923;DHT22;11627;51.322;22.816;2023-05-10T04:32:49;6.80;1.00
22923;DHT22;11627;51.322;22.816;2023-05-10T04:35:16;6.90;1.00
22923;DHT22;11627;51.322;22.816;2023-05-10T04:37:41;7.00;1.00
22923;DHT22;11627;51.322;22.816;2023-05-10T04:40:08;7.20;1.00
22923;DHT22;11627;51.322;22.816;2023-05-10T04:42:35;7.30;1.00
22923;DHT22;11627;51.322;22.816;2023-05-10T04:45:04;7.40;1.00
22923;DHT22;11627;51.322;22.816;2023-05-10T04:47:31;7.50;1.00
22923;DHT22;11627;51.322;22.816;2023-05-10T04:49:59;7.60;1.00
22923;DHT22;11627;51.322;22.816;2023-05-10T04:52:26;7.70;1.00
22923;DHT22;11627;51.322;22.816;2023-05-10T04:54:52;7.80;1.00
22923;DHT22;11627;51.322;22.816;2023-05-10T04:57:17;7.90;1.00
22923;DHT22;11627;51.322;22.816;2023-05-10T04:59:43;8.00;1.00
22923;DHT22;11627;51.322;22.816;2023-05-10T05:02:09;8.00;1.00
22923;DHT22;11627;51.322;22.816;2023-05-10T05:04:34;8.20;1.00
22923;DHT22;11627;51.322;22.816;2023-05-10T05:07:03;8.30;1.00
22923;DHT22;11627;51.322;22.816;2023-05-10T05:09:29;8.40;1.00
22923;DHT22;11627;51.322;22.816;2023-05-10T05:11:54;8.50;1.00
22923;DHT22;11627;51.322;22.816;2023-05-10T05:14:22;8.50;1.00
22923;DHT22;11627;51.322;22.816;2023-05-10T05:16:47;8.70;1.00
22923;DHT22;11627;51.322;22.816;2023-05-10T05:19:13;8.80;1.00
22923;DHT22;11627;51.322;22.816;2023-05-10T05:21:40;8.90;1.00
22923;DHT22;11627;51.322;22.816;2023-05-10T05:24:08;9.00;1.00
22923;DHT22;11627;51.322;22.816;2023-05-10T05:26:39;9.10;1.00
22923;DHT22;11627;51.322;22.816;2023-05-10T05:29:08;9.20;1.00
22923;DHT22;11627;51.322;22.816;2023-05-10T05:31:35;9.30;6.30
22923;DHT22;11627;51.322;22.816;2023-05-10T05:34:04;9.30;5.90
22923;DHT22;11627;51.322;22.816;2023-05-10T05:36:35;9.40;5.80
22923;DHT22;11627;51.322;22.816;2023-05-10T05:39:02;9.50;3.80
22923;DHT22;11627;51.322;22.816;2023-05-10T05:41:29;9.70;5.30
22923;DHT22;11627;51.322;22.816;2023-05-10T05:43:56;9.70;8.50
22923;DHT22;11627;51.322;22.816;2023-05-10T05:46:23;9.80;14.00
22923;DHT22;11627;51.322;22.816;2023-05-10T05:48:50;9.90;23.00
22923;DHT22;11627;51.322;22.816;2023-05-10T05:51:18;9.90;22.30
22923;DHT22;11627;51.322;22.816;2023-05-10T05:53:46;10.00;22.20
22923;DHT22;11627;51.322;22.816;2023-05-10T05:56:12;10.10;19.50
22923;DHT22;11627;51.322;22.816;2023-05-10T05:58:38;10.20;22.60
22923;DHT22;11627;51.322;22.816;2023-05-10T06:01:05;10.30;25.60
22923;DHT22;11627;51.322;22.816;2023-05-10T06:03:31;10.40;24.40
22923;DHT22;11627;51.322;22.816;2023-05-10T06:05:58;10.40;21.90
22923;DHT22;11627;51.322;22.816;2023-05-10T06:08:23;10.40;21.90
22923;DHT22;11627;51.322;22.816;2023-05-10T06:10:55;10.50;20.00
22923;DHT22;11627;51.322;22.816;2023-05-10T06:13:22;10.50;16.10
22923;DHT22;11627;51.322;22.816;2023-05-10T06:15:48;10.60;13.10
22923;DHT22;11627;51.322;22.816;2023-05-10T06:18:16;10.60;14.20
22923;DHT22;11627;51.322;22.816;2023-05-10T06:20:42;10.70;14.40
22923;DHT22;11627;51.322;22.816;2023-05-10T06:23:09;10.80;13.90
22923;DHT22;11627;51.322;22.816;2023-05-10T06:25:35;10.90;16.30
22923;DHT22;11627;51.322;22.816;2023-05-10T06:28:03;11.00;15.80
22923;DHT22;11627;51.322;22.816;2023-05-10T06:30:30;11.10;15.90
22923;DHT22;11627;51.322;22.816;2023-05-10T06:32:56;11.20;15.50
22923;DHT22;11627;51.322;22.816;2023-05-10T06:35:22;11.30;16.40
22923;DHT22;11627;51.322;22.816;2023-05-10T06:37:50;11.40;15.80
22923;DHT22;11627;51.322;22.816;2023-05-10T06:40:17;11.40;15.50
22923;DHT22;11627;51.322;22.816;2023-05-10T06:42:44;11.50;15.60
22923;DHT22;11627;51.322;22.816;2023-05-10T06:45:14;11.60;16.10
22923;DHT22;11627;51.322;22.816;2023-05-10T06:47:40;11.70;16.70
22923;DHT22;11627;51.322;22.816;2023-05-10T06:50:09;11.80;16.20
22923;DHT22;11627;51.322;22.816;2023-05-10T06:52:37;12.00;14.00
22923;DHT22;11627;51.322;22.816;2023-05-10T06:55:04;12.10;16.90
22923;DHT22;11627;51.322;22.816;2023-05-10T06:57:30;12.20;21.10
22923;DHT22;11627;51.322;22.816;2023-05-10T06:59:57;12.40;17.50
22923;DHT22;11627;51.322;22.816;2023-05-10T07:02:23;12.40;16.90
22923;DHT22;11627;51.322;22.816;2023-05-10T07:04:50;12.50;21.60
22923;DHT22;11627;51.322;22.816;2023-05-10T07:07:17;12.60;22.50
22923;DHT22;11627;51.322;22.816;2023-05-10T07:09:43;12.80;16.20
22923;DHT22;11627;51.322;22.816;2023-05-10T07:12:08;12.90;21.80
22923;DHT22;11627;51.322;22.816;2023-05-10T07:14:35;13.00;23.20
22923;DHT22;11627;51.322;22.816;2023-05-10T07:17:02;13.10;20.80
22923;DHT22;11627;51.322;22.816;2023-05-10T07:19:27;13.20;25.60
22923;DHT22;11627;51.322;22.816;2023-05-10T07:21:55;13.30;25.20
22923;DHT22;11627;51.322;22.816;2023-05-10T07:24:21;13.40;26.20
22923;DHT22;11627;51.322;22.816;2023-05-10T07:26:46;13.50;24.00
22923;DHT22;11627;51.322;22.816;2023-05-10T07:29:12;13.60;23.40
22923;DHT22;11627;51.322;22.816;2023-05-10T07:31:38;13.70;24.30
22923;DHT22;11627;51.322;22.816;2023-05-10T07:34:03;13.80;22.40
22923;DHT22;11627;51.322;22.816;2023-05-10T07:36:31;13.80;21.70
22923;DHT22;11627;51.322;22.816;2023-05-10T07:38:56;13.90;18.90
22923;DHT22;11627;51.322;22.816;2023-05-10T07:41:23;14.00;18.20
22923;DHT22;11627;51.322;22.816;2023-05-10T07:43:48;14.00;15.60
22923;DHT22;11627;51.322;22.816;2023-05-10T07:46:14;14.00;18.40
22923;DHT22;11627;51.322;22.816;2023-05-10T07:48:40;14.00;18.00
22923;DHT22;11627;51.322;22.816;2023-05-10T07:51:09;14.10;18.60
22923;DHT22;11627;51.322;22.816;2023-05-10T07:53:37;14.20;18.40
22923;DHT22;11627;51.322;22.816;2023-05-10T07:56:28;14.30;18.00
22923;DHT22;11627;51.322;22.816;2023-05-10T07:59:01;14.40;16.10
22923;DHT22;11627;51.322;22.816;2023-05-10T08:01:30;14.50;11.30
22923;DHT22;11627;51.322;22.816;2023-05-10T08:03:56;14.40;9.90
22923;DHT22;11627;51.322;22.816;2023-05-10T08:06:29;14.50;7.40
22923;DHT22;11627;51.322;22.816;2023-05-10T08:08:55;14.50;4.20
22923;DHT22;11627;51.322;22.816;2023-05-10T08:11:22;14.50;6.40
22923;DHT22;11627;51.322;22.816;2023-05-10T08:13:49;14.60;7.30
22923;DHT22;11627;51.322;22.816;2023-05-10T08:16:17;14.60;5.40
22923;DHT22;11627;51.322;22.816;2023-05-10T08:18:44;14.70;5.60
22923;DHT22;11627;51.322;22.816;2023-05-10T08:21:12;14.90;8.00
22923;DHT22;11627;51.322;22.816;2023-05-10T08:23:38;14.90;7.10
22923;DHT22;11627;51.322;22.816;2023-05-10T08:26:05;15.00;6.90
22923;DHT22;11627;51.322;22.816;2023-05-10T08:28:31;15.10;6.20
22923;DHT22;11627;51.322;22.816;2023-05-10T08:30:57;15.10;2.20
22923;DHT22;11627;51.322;22.816;2023-05-10T08:33:23;15.10;1.00
22923;DHT22;11627;51.322;22.816;2023-05-10T08:35:53;15.10;1.00
22923;DHT22;11627;51.322;22.816;2023-05-10T08:38:18;15.00;1.00
22923;DHT22;11627;51.322;22.816;2023-05-10T08:40:44;14.90;1.00
22923;DHT22;11627;51.322;22.816;2023-05-10T08:43:13;15.00;1.00
22923;DHT22;11627;51.322;22.816;2023-05-10T08:45:42;15.10;1.00
22923;DHT22;11627;51.322;22.816;2023-05-10T08:48:10;15.10;1.00
22923;DHT22;11627;51.322;22.816;2023-05-10T08:50:41;15.20;1.00
22923;DHT22;11627;51.322;22.816;2023-05-10T08:53:28;15.30;1.00
22923;DHT22;11627;51.322;22.816;2023-05-10T08:55:55;15.30;1.00
22923;DHT22;11627;51.322;22.816;2023-05-10T08:58:21;15.30;1.00
22923;DHT22;11627;51.322;22.816;2023-05-10T09:00:49;15.40;1.00
22923;DHT22;11627;51.322;22.816;2023-05-10T09:03:18;15.40;1.00
22923;DHT22;11627;51.322;22.816;2023-05-10T09:05:44;15.50;1.00
22923;DHT22;11627;51.322;22.816;2023-05-10T09:08:11;15.70;1.00
22923;DHT22;11627;51.322;22.816;2023-05-10T09:10:39;15.80;1.00
22923;DHT22;11627;51.322;22.816;2023-05-10T09:13:07;15.80;1.00
22923;DHT22;11627;51.322;22.816;2023-05-10T09:15:35;15.80;1.00
22923;DHT22;11627;51.322;22.816;2023-05-10T09:18:01;15.50;1.00
22923;DHT22;11627;51.322;22.816;2023-05-10T09:20:28;15.30;1.00
22923;DHT22;11627;51.322;22.816;2023-05-10T09:22:57;15.50;1.00
22923;DHT22;11627;51.322;22.816;2023-05-10T09:25:33;15.70;1.00
22923;DHT22;11627;51.322;22.816;2023-05-10T09:28:00;15.70;1.00
22923;DHT22;11627;51.322;22.816;2023-05-10T09:30:30;15.60;1.00
22923;DHT22;11627;51.322;22.816;2023-05-10T09:33:00;15.70;1.00
22923;DHT22;11627;51.322;22.816;2023-05-10T09:35:29;15.90;1.00
22923;DHT22;11627;51.322;22.816;2023-05-10T09:37:59;15.90;1.00
22923;DHT22;11627;51.322;22.816;2023-05-10T09:40:27;15.90;1.00
22923;DHT22;11627;51.322;22.816;2023-05-10T09:43:01;15.90;1.00
22923;DHT22;11627;51.322;22.816;2023-05-10T09:45:35;16.00;1.00
22923;DHT22;11627;51.322;22.816;2023-05-10T09:48:02;16.10;1.00
22923;DHT22;11627;51.322;22.816;2023-05-10T09:50:29;16.10;1.00
22923;DHT22;11627;51.322;22.816;2023-05-10T09:53:15;15.90;1.00
22923;DHT22;11627;51.322;22.816;2023-05-10T09:55:44;16.00;1.00
22923;DHT22;11627;51.322;22.816;2023-05-10T09:58:14;16.10;1.00
22923;DHT22;11627;51.322;22.816;2023-05-10T10:00:42;16.30;1.00
22923;DHT22;11627;51.322;22.816;2023-05-10T10:03:16;16.40;1.00
22923;DHT22;11627;51.322;22.816;2023-05-10T10:05:45;16.50;1.00
22923;DHT22;11627;51.322;22.816;2023-05-10T10:08:12;16.60;1.00
22923;DHT22;11627;51.322;22.816;2023-05-10T10:10:38;16.60;1.00
22923;DHT22;11627;51.322;22.816;2023-05-10T10:13:07;16.80;1.00
22923;DHT22;11627;51.322;22.816;2023-05-10T10:15:36;16.80;1.00
22923;DHT22;11627;51.322;22.816;2023-05-10T10:18:06;16.80;1.00
22923;DHT22;11627;51.322;22.816;2023-05-10T10:20:33;17.00;1.00
22923;DHT22;11627;51.322;22.816;2023-05-10T10:23:00;17.00;1.00
22923;DHT22;11627;51.322;22.816;2023-05-10T10:25:25;16.90;1.00
22923;DHT22;11627;51.322;22.816;2023-05-10T10:36:13;16.70;1.00
22923;DHT22;11627;51.322;22.816;2023-05-10T10:55:00;17.00;1.00
22923;DHT22;11627;51.322;22.816;2023-05-10T10:57:29;16.80;1.00
22923;DHT22;11627;51.322;22.816;2023-05-10T11:00:21;16.90;1.00
22923;DHT22;11627;51.322;22.816;2023-05-10T11:07:56;16.80;1.00
22923;DHT22;11627;51.322;22.816;2023-05-10T11:10:24;17.00;1.00
22923;DHT22;11627;51.322;22.816;2023-05-10T11:12:52;17.10;1.00
22923;DHT22;11627;51.322;22.816;2023-05-10T11:15:19;17.20;1.00
22923;DHT22;11627;51.322;22.816;2023-05-10T11:17:47;17.20;1.00
22923;DHT22;11627;51.322;22.816;2023-05-10T11:20:18;17.30;1.00
22923;DHT22;11627;51.322;22.816;2023-05-10T11:23:11;17.50;1.00
22923;DHT22;11627;51.322;22.816;2023-05-10T11:25:43;17.40;1.00
22923;DHT22;11627;51.322;22.816;2023-05-10T11:28:11;17.50;1.00
22923;DHT22;11627;51.322;22.816;2023-05-10T11:30:41;17.50;1.00
22923;DHT22;11627;51.322;22.816;2023-05-10T11:33:09;17.40;1.00
22923;DHT22;11627;51.322;22.816;2023-05-10T11:35:39;17.20;1.00
22923;DHT22;11627;51.322;22.816;2023-05-10T11:38:11;17.40;1.00
22923;DHT22;11627;51.322;22.816;2023-05-10T11:40:39;17.30;1.00
22923;DHT22;11627;51.322;22.816;2023-05-10T11:43:05;17.30;1.00
22923;DHT22;11627;51.322;22.816;2023-05-10T11:45:34;17.20;1.00
22923;DHT22;11627;51.322;22.816;2023-05-10T11:48:01;17.30;1.00
22923;DHT22;11627;51.322;22.816;2023-05-10T11:50:29;17.30;1.00
22923;DHT22;11627;51.322;22.816;2023-05-10T11:52:56;17.30;1.00
22923;DHT22;11627;51.322;22.816;2023-05-10T11:55:22;17.50;1.00
22923;DHT22;11627;51.322;22.816;2023-05-10T11:57:54;17.70;1.00
22923;DHT22;11627;51.322;22.816;2023-05-10T12:00:20;17.70;1.00
22923;DHT22;11627;51.322;22.816;2023-05-10T12:02:47;17.80;1.00
22923;DHT22;11627;51.322;22.816;2023-05-10T12:05:13;17.80;1.00
22923;DHT22;11627;51.322;22.816;2023-05-10T12:07:39;17.80;1.00
22923;DHT22;11627;51.322;22.816;2023-05-10T12:10:10;17.70;1.00
22923;DHT22;11627;51.322;22.816;2023-05-10T12:12:45;17.80;1.00
22923;DHT22;11627;51.322;22.816;2023-05-10T12:15:23;17.70;1.00
22923;DHT22;11627;51.322;22.816;2023-05-10T12:17:51;17.80;1.00
22923;DHT22;11627;51.322;22.816;2023-05-10T12:20:21;17.90;1.00
22923;DHT22;11627;51.322;22.816;2023-05-10T12:22:51;18.00;1.00
22923;DHT22;11627;51.322;22.816;2023-05-10T12:25:22;18.10;1.00
22923;DHT22;11627;51.322;22.816;2023-05-10T12:28:00;18.30;1.00
22923;DHT22;11627;51.322;22.816;2023-05-10T12:30:32;18.30;1.00
22923;DHT22;11627;51.322;22.816;2023-05-10T12:33:13;18.50;1.00
22923;DHT22;11627;51.322;22.816;2023-05-10T12:35:53;18.30;1.00
22923;DHT22;11627;51.322;22.816;2023-05-10T12:38:41;18.10;1.00
22923;DHT22;11627;51.322;22.816;2023-05-10T12:41:17;18.20;1.00
22923;DHT22;11627;51.322;22.816;2023-05-10T12:43:45;18.20;1.00
22923;DHT22;11627;51.322;22.816;2023-05-10T12:46:13;18.30;1.00
22923;DHT22;11627;51.322;22.816;2023-05-10T12:48:40;18.30;1.00
22923;DHT22;11627;51.322;22.816;2023-05-10T12:51:07;18.20;1.00
22923;DHT22;11627;51.322;22.816;2023-05-10T12:53:38;18.30;1.00
22923;DHT22;11627;51.322;22.816;2023-05-10T12:56:06;18.10;1.00
22923;DHT22;11627;51.322;22.816;2023-05-10T12:58:32;18.10;1.00
22923;DHT22;11627;51.322;22.816;2023-05-10T13:01:01;18.20;1.00
22923;DHT22;11627;51.322;22.816;2023-05-10T13:03:27;18.30;1.00
22923;DHT22;11627;51.322;22.816;2023-05-10T13:05:57;18.30;1.00
22923;DHT22;11627;51.322;22.816;2023-05-10T13:08:26;18.20;1.00
22923;DHT22;11627;51.322;22.816;2023-05-10T13:10:53;18.30;1.00
22923;DHT22;11627;51.322;22.816;2023-05-10T13:13:20;18.30;1.00
22923;DHT22;11627;51.322;22.816;2023-05-10T13:15:46;18.20;1.00
22923;DHT22;11627;51.322;22.816;2023-05-10T13:18:13;18.20;1.00
22923;DHT22;11627;51.322;22.816;2023-05-10T13:20:40;18.20;1.00
22923;DHT22;11627;51.322;22.816;2023-05-10T13:23:07;18.10;1.00
22923;DHT22;11627;51.322;22.816;2023-05-10T13:25:33;18.30;1.00
22923;DHT22;11627;51.322;22.816;2023-05-10T13:27:59;18.30;1.00
22923;DHT22;11627;51.322;22.816;2023-05-10T13:30:26;18.30;1.00
22923;DHT22;11627;51.322;22.816;2023-05-10T13:32:53;18.20;1.00
22923;DHT22;11627;51.322;22.816;2023-05-10T13:35:21;18.20;1.00
22923;DHT22;11627;51.322;22.816;2023-05-10T13:37:48;18.20;1.00
22923;DHT22;11627;51.322;22.816;2023-05-10T13:40:15;18.20;1.00
22923;DHT22;11627;51.322;22.816;2023-05-10T13:42:43;18.30;1.00
22923;DHT22;11627;51.322;22.816;2023-05-10T13:45:10;18.50;1.00
22923;DHT22;11627;51.322;22.816;2023-05-10T13:47:40;18.60;1.00
22923;DHT22;11627;51.322;22.816;2023-05-10T13:50:07;18.80;1.00
22923;DHT22;11627;51.322;22.816;2023-05-10T13:52:34;18.70;1.00
22923;DHT22;11627;51.322;22.816;2023-05-10T13:55:00;18.80;1.00
22923;DHT22;11627;51.322;22.816;2023-05-10T13:57:28;18.70;1.00
22923;DHT22;11627;51.322;22.816;2023-05-10T13:59:55;18.70;1.00
22923;DHT22;11627;51.322;22.816;2023-05-10T14:02:23;18.60;1.00
22923;DHT22;11627;51.322;22.816;2023-05-10T14:04:51;18.90;1.00
22923;DHT22;11627;51.322;22.816;2023-05-10T14:07:17;19.00;1.00
22923;DHT22;11627;51.322;22.816;2023-05-10T14:09:44;19.00;1.00
22923;DHT22;11627;51.322;22.816;2023-05-10T14:12:11;19.10;1.00
22923;DHT22;11627;51.322;22.816;2023-05-10T14:14:36;19.00;1.00
22923;DHT22;11627;51.322;22.816;2023-05-10T14:17:03;19.20;1.00
22923;DHT22;11627;51.322;22.816;2023-05-10T14:19:31;19.30;1.00
22923;DHT22;11627;51.322;22.816;2023-05-10T14:21:59;19.20;1.00
22923;DHT22;11627;51.322;22.816;2023-05-10T14:24:27;19.30;1.00
22923;DHT22;11627;51.322;22.816;2023-05-10T14:26:53;19.20;1.00
22923;DHT22;11627;51.322;22.816;2023-05-10T14:29:20;19.30;1.00
22923;DHT22;11627;51.322;22.816;2023-05-10T14:31:46;19.10;1.00
22923;DHT22;11627;51.322;22.816;2023-05-10T14:34:13;19.20;1.00
22923;DHT22;11627;51.322;22.816;2023-05-10T14:36:38;19.20;1.00
22923;DHT22;11627;51.322;22.816;2023-05-10T14:39:05;19.00;1.00
22923;DHT22;11627;51.322;22.816;2023-05-10T14:41:33;19.10;1.00
22923;DHT22;11627;51.322;22.816;2023-05-10T14:44:01;19.40;1.00
22923;DHT22;11627;51.322;22.816;2023-05-10T14:46:28;19.40;1.00
22923;DHT22;11627;51.322;22.816;2023-05-10T14:48:56;19.40;1.00
22923;DHT22;11627;51.322;22.816;2023-05-10T14:51:23;19.40;1.00
22923;DHT22;11627;51.322;22.816;2023-05-10T14:53:50;19.10;1.00
22923;DHT22;11627;51.322;22.816;2023-05-10T14:56:17;19.10;1.00
22923;DHT22;11627;51.322;22.816;2023-05-10T14:58:44;19.20;1.00
22923;DHT22;11627;51.322;22.816;2023-05-10T15:01:10;19.40;1.00
22923;DHT22;11627;51.322;22.816;2023-05-10T15:03:36;19.10;1.00
22923;DHT22;11627;51.322;22.816;2023-05-10T15:06:04;19.10;1.00
22923;DHT22;11627;51.322;22.816;2023-05-10T15:08:30;19.10;1.00
22923;DHT22;11627;51.322;22.816;2023-05-10T15:10:58;19.70;1.00
22923;DHT22;11627;51.322;22.816;2023-05-10T15:13:26;20.80;1.00
22923;DHT22;11627;51.322;22.816;2023-05-10T15:15:51;21.30;1.00
22923;DHT22;11627;51.322;22.816;2023-05-10T15:18:19;22.30;1.00
22923;DHT22;11627;51.322;22.816;2023-05-10T15:20:45;23.60;1.00
22923;DHT22;11627;51.322;22.816;2023-05-10T15:23:11;23.80;1.00
22923;DHT22;11627;51.322;22.816;2023-05-10T15:25:37;24.10;1.00
22923;DHT22;11627;51.322;22.816;2023-05-10T15:28:05;24.20;1.00
22923;DHT22;11627;51.322;22.816;2023-05-10T15:30:31;24.20;1.00
22923;DHT22;11627;51.322;22.816;2023-05-10T15:32:59;24.40;1.00
22923;DHT22;11627;51.322;22.816;2023-05-10T15:35:26;26.00;1.00
22923;DHT22;11627;51.322;22.816;2023-05-10T15:37:54;26.30;1.00
22923;DHT22;11627;51.322;22.816;2023-05-10T15:40:19;26.40;1.00
22923;DHT22;11627;51.322;22.816;2023-05-10T15:42:45;26.90;1.00
22923;DHT22;11627;51.322;22.816;2023-05-10T15:45:11;25.70;1.00
22923;DHT22;11627;51.322;22.816;2023-05-10T15:47:39;26.60;1.00
22923;DHT22;11627;51.322;22.816;2023-05-10T15:50:06;26.60;1.00
22923;DHT22;11627;51.322;22.816;2023-05-10T15:52:33;27.50;1.00
22923;DHT22;11627;51.322;22.816;2023-05-10T15:54:59;28.10;1.00
22923;DHT22;11627;51.322;22.816;2023-05-10T15:57:26;27.70;1.00
22923;DHT22;11627;51.322;22.816;2023-05-10T15:59:52;29.20;1.00
22923;DHT22;11627;51.322;22.816;2023-05-10T16:02:19;30.20;1.00
22923;DHT22;11627;51.322;22.816;2023-05-10T16:04:46;28.20;1.00
22923;DHT22;11627;51.322;22.816;2023-05-10T16:07:12;29.60;1.00
22923;DHT22;11627;51.322;22.816;2023-05-10T16:09:39;30.00;1.00
22923;DHT22;11627;51.322;22.816;2023-05-10T16:12:04;30.90;1.00
22923;DHT22;11627;51.322;22.816;2023-05-10T16:14:30;32.10;1.00
22923;DHT22;11627;51.322;22.816;2023-05-10T16:16:56;29.20;1.00
22923;DHT22;11627;51.322;22.816;2023-05-10T16:19:22;29.80;1.00
22923;DHT22;11627;51.322;22.816;2023-05-10T16:21:48;29.10;1.00
22923;DHT22;11627;51.322;22.816;2023-05-10T16:24:16;28.10;1.00
22923;DHT22;11627;51.322;22.816;2023-05-10T16:26:43;27.80;1.00